createdAt,value
2023-12-09T00:01:43.768Z,98438.75
2023-12-09T00:04:10.722Z,98445.75
2023-12-09T00:06:37.340Z,98446.28
2023-12-09T00:09:04.929Z,98448.97
2023-12-09T00:11:31.458Z,98443.06
2023-12-09T00:14:04.739Z,98440.38
2023-12-09T00:16:31.973Z,98439.56
2023-12-09T00:19:00.398Z,98449.50
2023-12-09T00:21:28.415Z,98448.16
2023-12-09T00:23:55.351Z,98448.41
2023-12-09T00:26:21.883Z,98448.41
2023-12-09T00:28:48.392Z,98445.97
2023-12-09T00:31:15.081Z,98447.03
2023-12-09T00:33:42.021Z,98455.09
2023-12-09T00:36:09.168Z,98460.22
2023-12-09T00:38:35.826Z,98458.09
2023-12-09T00:41:02.539Z,98454.84
2023-12-09T00:43:28.985Z,98448.66
2023-12-09T00:45:55.457Z,98449.47
2023-12-09T00:48:22.223Z,98445.16
2023-12-09T00:50:48.874Z,98444.09
2023-12-09T00:53:15.336Z,98448.94
2023-12-09T00:55:41.803Z,98447.31
2023-12-09T00:58:08.240Z,98443.00
2023-12-09T01:00:34.881Z,98445.69
2023-12-09T01:03:01.589Z,98442.75
2023-12-09T01:05:28.083Z,98452.69
2023-12-09T01:07:54.598Z,98456.44
2023-12-09T01:10:21.026Z,98461.81
2023-12-09T01:12:47.788Z,98459.94
2023-12-09T01:15:15.449Z,98463.44
2023-12-09T01:17:41.918Z,98466.13
2023-12-09T01:20:09.157Z,98472.03
2023-12-09T01:22:35.580Z,98472.84
2023-12-09T01:25:02.034Z,98472.84
2023-12-09T01:27:28.476Z,98481.72
2023-12-09T01:29:55.610Z,98488.16
2023-12-09T01:32:22.022Z,98490.84
2023-12-09T01:34:48.611Z,98486.56
2023-12-09T01:37:15.249Z,98488.16
2023-12-09T01:39:41.718Z,98490.59
2023-12-09T01:42:09.441Z,98490.03
2023-12-09T01:44:36.575Z,98503.22
2023-12-09T01:47:03.563Z,98497.31
2023-12-09T01:49:30.903Z,98507.53
2023-12-09T01:51:59.460Z,98506.72
2023-12-09T01:54:26.566Z,98515.84
2023-12-09T01:56:53.629Z,98511.28
2023-12-09T01:59:20.841Z,98505.09
2023-12-09T02:01:47.908Z,98512.09
2023-12-09T02:04:14.686Z,98515.59
2023-12-09T02:06:41.890Z,98510.22
2023-12-09T02:09:08.663Z,98505.63
2023-12-09T02:12:14.517Z,98509.66
2023-12-09T02:14:58.669Z,98509.66
2023-12-09T02:17:35.147Z,98511.81
2023-12-09T02:20:03.971Z,98504.56
2023-12-09T02:22:30.392Z,98517.19
2023-12-09T02:24:57.316Z,98520.13
2023-12-09T02:27:34.391Z,98511.81
2023-12-09T02:30:12.093Z,98508.06
2023-12-09T02:32:39.600Z,98494.34
2023-12-09T02:35:09.191Z,98488.16
2023-12-09T02:37:38.004Z,98488.16
2023-12-09T02:40:10.723Z,98489.50
2023-12-09T02:42:38.774Z,98488.47
2023-12-09T02:45:07.887Z,98489.50
2023-12-09T02:47:34.748Z,98479.03
2023-12-09T02:50:01.280Z,98480.66
2023-12-09T02:52:27.980Z,98488.47
2023-12-09T02:54:54.740Z,98480.66
2023-12-09T02:57:21.516Z,98477.16
2023-12-09T02:59:47.984Z,98477.97
2023-12-09T03:02:14.544Z,98473.16
2023-12-09T03:04:41.172Z,98473.69
2023-12-09T03:07:07.734Z,98466.16
2023-12-09T03:09:34.219Z,98460.22
2023-12-09T03:12:00.892Z,98448.38
2023-12-09T03:14:27.436Z,98449.47
2023-12-09T03:16:53.919Z,98445.69
2023-12-09T03:19:20.496Z,98443.78
2023-12-09T03:21:46.949Z,98436.78
2023-12-09T03:24:13.563Z,98441.38
2023-12-09T03:26:40.018Z,98442.41
2023-12-09T03:29:06.549Z,98442.41
2023-12-09T03:31:32.999Z,98432.47
2023-12-09T03:33:59.711Z,98427.34
2023-12-09T03:36:26.312Z,98433.81
2023-12-09T03:38:52.978Z,98441.28
2023-12-09T03:41:20.293Z,98443.16
2023-12-09T03:43:47.865Z,98439.13
2023-12-09T03:46:14.440Z,98436.44
2023-12-09T03:48:41.180Z,98417.34
2023-12-09T03:51:07.723Z,98417.56
2023-12-09T03:53:34.213Z,98411.06
2023-12-09T03:56:00.982Z,98422.84
2023-12-09T03:58:27.379Z,98423.38
2023-12-09T04:00:53.982Z,98427.63
2023-12-09T04:03:20.662Z,98429.72
2023-12-09T04:05:47.523Z,98430.75
2023-12-09T04:08:13.969Z,98425.59
2023-12-09T04:10:40.388Z,98421.50
2023-12-09T04:13:06.877Z,98422.03
2023-12-09T04:15:33.580Z,98425.72
2023-12-09T04:18:00.425Z,98415.22
2023-12-09T04:20:27.127Z,98413.28
2023-12-09T04:22:53.656Z,98416.47
2023-12-09T04:25:22.505Z,98427.16
2023-12-09T04:27:49.569Z,98423.34
2023-12-09T04:30:16.519Z,98434.59
2023-12-09T04:32:43.155Z,98446.94
2023-12-09T04:35:09.918Z,98448.81
2023-12-09T04:37:37.803Z,98461.44
2023-12-09T04:40:15.843Z,98457.94
2023-12-09T04:42:43.673Z,98449.88
2023-12-09T04:45:11.297Z,98450.69
2023-12-09T04:47:38.359Z,98453.13
2023-12-09T04:50:06.746Z,98447.25
2023-12-09T04:52:33.172Z,98445.13
2023-12-09T04:54:59.624Z,98442.72
2023-12-09T04:57:26.255Z,98462.09
2023-12-09T04:59:52.780Z,98457.28
2023-12-09T05:02:21.640Z,98449.78
2023-12-09T05:04:48.269Z,98446.03
2023-12-09T05:07:15.357Z,98442.28
2023-12-09T05:09:42.185Z,98438.03
2023-12-09T05:12:08.757Z,98447.47
2023-12-09T05:14:35.161Z,98442.63
2023-12-09T05:17:02.158Z,98436.47
2023-12-09T05:19:29.014Z,98426.31
2023-12-09T05:21:55.862Z,98426.88
2023-12-09T05:24:22.552Z,98423.69
2023-12-09T05:26:49.031Z,98422.63
2023-12-09T05:29:15.461Z,98411.88
2023-12-09T05:31:42.004Z,98415.13
2023-12-09T05:34:08.920Z,98410.56
2023-12-09T05:36:38.288Z,98419.16
2023-12-09T05:39:06.325Z,98410.88
2023-12-09T05:41:33.116Z,98409.53
2023-12-09T05:43:59.654Z,98404.22
2023-12-09T05:46:26.063Z,98406.69
2023-12-09T05:48:52.652Z,98395.41
2023-12-09T05:51:19.426Z,98392.75
2023-12-09T05:53:45.922Z,98386.84
2023-12-09T05:56:15.191Z,98389.06
2023-12-09T05:58:41.695Z,98387.44
2023-12-09T06:01:08.552Z,98393.06
2023-12-09T06:03:35.163Z,98394.16
2023-12-09T06:06:01.825Z,98395.75
2023-12-09T06:08:28.502Z,98400.63
2023-12-09T06:10:55.050Z,98398.22
2023-12-09T06:13:21.648Z,98391.50
2023-12-09T06:15:51.153Z,98397.44
2023-12-09T06:18:19.407Z,98389.63
2023-12-09T06:20:46.053Z,98393.38
2023-12-09T06:23:12.661Z,98389.63
2023-12-09T06:25:39.214Z,98379.47
2023-12-09T06:28:05.671Z,98388.06
2023-12-09T06:30:33.359Z,98385.91
2023-12-09T06:33:00.237Z,98382.19
2023-12-09T06:35:26.899Z,98381.09
2023-12-09T06:37:55.710Z,98380.56
2023-12-09T06:40:24.127Z,98378.41
2023-12-09T06:42:50.756Z,98379.00
2023-12-09T06:45:17.729Z,98386.25
2023-12-09T06:47:44.486Z,98377.38
2023-12-09T06:50:11.011Z,98379.00
2023-12-09T06:52:37.981Z,98378.47
2023-12-09T06:55:04.770Z,98370.41
2023-12-09T06:57:31.370Z,98374.97
2023-12-09T06:59:57.807Z,98363.72
2023-12-09T07:02:24.514Z,98366.94
2023-12-09T07:04:51.798Z,98364.50
2023-12-09T07:07:22.006Z,98371.50
2023-12-09T07:09:49.168Z,98373.13
2023-12-09T07:12:15.660Z,98364.25
2023-12-09T07:14:42.223Z,98366.13
2023-12-09T07:17:08.710Z,98354.31
2023-12-09T07:19:35.338Z,98363.72
2023-12-09T07:22:04.450Z,98370.97
2023-12-09T07:24:31.386Z,98370.97
2023-12-09T07:26:58.188Z,98379.59
2023-12-09T07:29:27.066Z,98384.97
2023-12-09T07:31:54.090Z,98380.13
2023-12-09T07:34:21.581Z,98384.97
2023-12-09T07:36:48.320Z,98382.28
2023-12-09T07:39:14.947Z,98387.66
2023-12-09T07:41:42.535Z,98387.16
2023-12-09T07:44:09.017Z,98382.31
2023-12-09T07:46:35.672Z,98382.84
2023-12-09T07:49:02.403Z,98379.91
2023-12-09T07:51:29.073Z,98378.03
2023-12-09T07:53:55.585Z,98369.44
2023-12-09T07:56:22.089Z,98362.97
2023-12-09T07:58:48.683Z,98362.72
2023-12-09T08:01:15.241Z,98365.69
2023-12-09T08:03:41.897Z,98372.41
2023-12-09T08:06:08.825Z,98373.22
2023-12-09T08:08:36.292Z,98375.66
2023-12-09T08:11:04.124Z,98367.34
2023-12-09T08:13:30.579Z,98362.75
2023-12-09T08:15:57.066Z,98368.41
2023-12-09T08:18:23.870Z,98354.44
2023-12-09T08:20:50.439Z,98358.75
2023-12-09T08:23:16.938Z,98358.22
2023-12-09T08:25:44.695Z,98360.91
2023-12-09T08:28:11.740Z,98359.53
2023-12-09T08:30:40.178Z,98350.13
2023-12-09T08:33:06.890Z,98356.59
2023-12-09T08:35:33.689Z,98354.97
2023-12-09T08:38:00.272Z,98354.69
2023-12-09T08:40:26.808Z,98350.16
2023-12-09T08:42:53.561Z,98338.34
2023-12-09T08:45:20.138Z,98325.97
2023-12-09T08:47:47.031Z,98328.66
2023-12-09T08:52:44.999Z,98352.69
2023-12-09T08:55:12.283Z,98353.47
2023-12-09T08:57:39.670Z,98356.16
2023-12-09T09:00:09.435Z,98347.03
2023-12-09T09:02:36.204Z,98348.34
2023-12-09T09:05:04.325Z,98347.84
2023-12-09T09:07:31.176Z,98329.25
2023-12-09T09:09:57.646Z,98329.81
2023-12-09T09:12:24.678Z,98336.28
2023-12-09T09:14:51.248Z,98330.88
2023-12-09T09:17:17.961Z,98330.88
2023-12-09T09:19:44.505Z,98317.16
2023-12-09T09:22:11.060Z,98313.09
2023-12-09T09:24:37.961Z,98302.91
2023-12-09T09:27:04.674Z,98312.06
2023-12-09T09:29:31.412Z,98314.16
2023-12-09T09:31:57.863Z,98309.56
2023-12-09T09:34:24.365Z,98319.03
2023-12-09T09:36:50.889Z,98310.41
2023-12-09T09:39:19.344Z,98301.03
2023-12-09T09:42:23.751Z,98292.13
2023-12-09T09:45:15.480Z,98280.03
2023-12-09T09:47:42.901Z,98274.91
2023-12-09T09:50:11.330Z,98278.13
2023-12-09T09:52:41.481Z,98270.34
2023-12-09T09:55:08.717Z,98271.13
2023-12-09T09:57:35.791Z,98257.69
2023-12-09T10:00:02.759Z,98266.28
2023-12-09T10:02:31.293Z,98273.03
2023-12-09T10:04:57.908Z,98262.50
2023-12-09T10:07:24.797Z,98257.97
2023-12-09T10:09:51.550Z,98251.22
2023-12-09T10:12:18.167Z,98250.41
2023-12-09T10:14:46.488Z,98260.09
2023-12-09T10:17:14.580Z,98256.88
2023-12-09T10:19:41.286Z,98249.63
2023-12-09T10:22:08.371Z,98232.66
2023-12-09T10:24:34.848Z,98223.75
2023-12-09T10:27:01.511Z,98221.34
2023-12-09T10:29:27.921Z,98217.28
2023-12-09T10:31:54.455Z,98208.13
2023-12-09T10:34:21.427Z,98212.97
2023-12-09T10:36:48.167Z,98197.06
2023-12-09T10:39:14.692Z,98208.38
2023-12-09T10:41:45.485Z,98183.88
2023-12-09T10:44:11.961Z,98184.66
2023-12-09T10:46:39.398Z,98169.84
2023-12-09T10:49:06.367Z,98158.78
2023-12-09T10:51:33.210Z,98162.53
2023-12-09T10:53:59.794Z,98158.47
2023-12-09T10:56:26.330Z,98163.25
2023-12-09T10:58:54.242Z,98156.78
2023-12-09T11:01:21.615Z,98152.97
2023-12-09T11:03:48.236Z,98144.56
2023-12-09T11:06:18.669Z,98138.59
2023-12-09T11:08:45.889Z,98135.56
2023-12-09T11:11:12.749Z,98137.28
2023-12-09T11:13:39.910Z,98131.16
2023-12-09T11:16:11.263Z,98127.25
2023-12-09T11:18:48.033Z,98112.75
2023-12-09T11:21:17.135Z,98100.91
2023-12-09T11:23:46.962Z,98085.84
2023-12-09T11:26:26.768Z,98077.03
2023-12-09T11:29:01.073Z,98064.94
2023-12-09T11:31:48.157Z,98055.06
2023-12-09T11:34:17.066Z,98043.00
2023-12-09T11:36:46.077Z,98045.19
2023-12-09T11:39:14.604Z,98044.13
2023-12-09T11:41:41.971Z,98035.25
2023-12-09T11:44:09.894Z,98030.16
2023-12-09T11:46:37.253Z,98032.03
2023-12-09T11:49:05.316Z,98025.31
2023-12-09T11:51:34.857Z,98008.34
2023-12-09T11:54:04.539Z,97999.72
2023-12-09T11:56:31.485Z,97987.91
2023-12-09T11:58:58.249Z,97976.59
2023-12-09T12:01:26.264Z,97971.19
2023-12-09T12:03:53.593Z,97967.34
2023-12-09T12:06:23.071Z,97965.13
2023-12-09T12:08:52.236Z,97960.41
2023-12-09T12:11:21.389Z,97947.69
2023-12-09T12:13:48.842Z,97947.69
2023-12-09T12:16:16.203Z,97953.38
2023-12-09T12:18:43.112Z,97950.97
2023-12-09T12:21:09.832Z,97944.47
2023-12-09T12:23:36.564Z,97928.50
2023-12-09T12:26:03.547Z,97926.34
2023-12-09T12:28:30.237Z,97911.53
2023-12-09T12:31:00.776Z,97927.16
2023-12-09T12:33:30.050Z,97913.94
2023-12-09T12:35:56.701Z,97906.69
2023-12-09T12:38:26.879Z,97887.25
2023-12-09T12:40:54.687Z,97891.34
2023-12-09T12:43:22.141Z,97886.75
2023-12-09T12:45:53.546Z,97866.00
2023-12-09T12:48:21.515Z,97861.34
2023-12-09T12:50:49.319Z,97858.06
2023-12-09T12:53:17.491Z,97851.06
2023-12-09T12:55:44.459Z,97846.75
2023-12-09T12:58:11.209Z,97834.09
2023-12-09T13:00:38.228Z,97838.69
2023-12-09T13:03:06.354Z,97830.09
2023-12-09T13:05:33.161Z,97827.66
2023-12-09T13:07:59.687Z,97823.66
2023-12-09T13:10:26.264Z,97808.88
2023-12-09T13:12:52.854Z,97801.56
2023-12-09T13:15:19.686Z,97802.69
2023-12-09T13:17:46.294Z,97801.06
2023-12-09T13:20:13.017Z,97816.41
2023-12-09T13:22:40.201Z,97818.91
2023-12-09T13:25:08.442Z,97810.31
2023-12-09T13:27:35.363Z,97797.91
2023-12-09T13:30:05.324Z,97770.44
2023-12-09T13:32:31.871Z,97753.47
2023-12-09T13:34:58.410Z,97751.88
2023-12-09T13:37:26.058Z,97753.25
2023-12-09T13:39:52.776Z,97738.75
2023-12-09T13:42:19.407Z,97728.84
2023-12-09T13:44:45.992Z,97730.22
2023-12-09T13:47:12.801Z,97744.56
2023-12-09T13:49:40.414Z,97735.16
2023-12-09T13:52:07.206Z,97722.78
2023-12-09T13:54:34.004Z,97709.88
2023-12-09T13:57:00.955Z,97697.81
2023-12-09T13:59:27.582Z,97686.28
2023-12-09T14:01:54.144Z,97673.41
2023-12-09T14:04:20.779Z,97679.34
2023-12-09T14:06:47.301Z,97684.75
2023-12-09T14:09:16.046Z,97683.16
2023-12-09T14:11:43.806Z,97662.69
2023-12-09T14:14:10.520Z,97658.41
2023-12-09T14:16:37.157Z,97665.97
2023-12-09T14:19:04.476Z,97657.06
2023-12-09T14:21:31.283Z,97674.06
2023-12-09T14:23:57.731Z,97656.81
2023-12-09T14:26:25.705Z,97644.63
2023-12-09T14:28:52.303Z,97618.50
2023-12-09T14:31:18.798Z,97604.16
2023-12-09T14:33:45.427Z,97618.38
2023-12-09T14:36:12.204Z,97628.84
2023-12-09T14:38:39.243Z,97633.94
2023-12-09T14:41:05.812Z,97648.28
2023-12-09T14:43:32.354Z,97651.25
2023-12-09T14:45:58.913Z,97641.09
2023-12-09T14:48:25.888Z,97640.56
2023-12-09T14:50:54.753Z,97622.28
2023-12-09T14:53:21.447Z,97615.88
2023-12-09T14:55:48.099Z,97608.09
2023-12-09T14:58:14.629Z,97603.28
2023-12-09T15:00:41.290Z,97596.06
2023-12-09T15:03:07.946Z,97584.22
2023-12-09T15:05:34.537Z,97565.66
2023-12-09T15:08:03.866Z,97557.34
2023-12-09T15:10:31.018Z,97547.66
2023-12-09T15:12:57.539Z,97535.59
2023-12-09T15:15:24.317Z,97524.03
2023-12-09T15:17:50.975Z,97526.13
2023-12-09T15:20:17.788Z,97528.03
2023-12-09T15:22:45.870Z,97526.44
2023-12-09T15:25:13.932Z,97509.97
2023-12-09T15:27:40.758Z,97499.78
2023-12-09T15:30:09.201Z,97499.31
2023-12-09T15:32:36.153Z,97491.78
2023-12-09T15:35:03.018Z,97478.94
2023-12-09T15:37:29.537Z,97471.94
2023-12-09T15:39:56.074Z,97461.19
2023-12-09T15:42:22.702Z,97445.81
2023-12-09T15:44:49.297Z,97427.25
2023-12-09T15:47:15.989Z,97411.09
2023-12-09T15:49:43.050Z,97416.47
2023-12-09T15:52:09.652Z,97393.66
2023-12-09T15:54:36.589Z,97388.56
2023-12-09T15:57:03.920Z,97392.94
2023-12-09T15:59:30.602Z,97392.94
2023-12-09T16:01:57.194Z,97384.06
2023-12-09T16:04:23.845Z,97372.00
2023-12-09T16:06:50.361Z,97367.19
2023-12-09T16:09:17.506Z,97357.00
2023-12-09T16:11:44.517Z,97351.13
2023-12-09T16:14:11.121Z,97353.59
2023-12-09T16:16:37.837Z,97336.66
2023-12-09T16:19:04.560Z,97336.66
2023-12-09T16:21:31.340Z,97324.00
2023-12-09T16:23:57.874Z,97318.31
2023-12-09T16:26:24.471Z,97309.66
2023-12-09T16:28:50.961Z,97295.41
2023-12-09T16:31:17.781Z,97304.56
2023-12-09T16:33:44.549Z,97292.50
2023-12-09T16:36:11.857Z,97280.63
2023-12-09T16:38:38.685Z,97271.47
2023-12-09T16:41:05.319Z,97260.94
2023-12-09T16:43:31.807Z,97250.16
2023-12-09T16:45:58.390Z,97241.78
2023-12-09T16:48:25.212Z,97229.91
2023-12-09T16:50:51.794Z,97219.94
2023-12-09T16:53:20.853Z,97205.69
2023-12-09T16:55:47.424Z,97198.72
2023-12-09T16:58:14.045Z,97191.25
2023-12-09T17:00:40.750Z,97183.19
2023-12-09T17:03:07.477Z,97181.88
2023-12-09T17:05:34.278Z,97174.41
2023-12-09T17:08:00.776Z,97149.69
2023-12-09T17:10:27.285Z,97149.69
2023-12-09T17:12:53.845Z,97146.47
2023-12-09T17:15:20.700Z,97127.66
2023-12-09T17:17:47.585Z,97126.06
2023-12-09T17:20:14.169Z,97120.97
2023-12-09T17:22:40.657Z,97104.84
2023-12-09T17:25:07.902Z,97103.25
2023-12-09T17:27:34.779Z,97095.19
2023-12-09T17:30:01.273Z,97090.59
2023-12-09T17:32:28.219Z,97081.72
2023-12-09T17:34:55.151Z,97084.41
2023-12-09T17:37:23.011Z,97086.00
2023-12-09T17:39:49.796Z,97075.72
2023-12-09T17:42:16.637Z,97078.91
2023-12-09T17:44:43.288Z,97062.75
2023-12-09T17:47:09.804Z,97058.22
2023-12-09T17:49:36.406Z,97050.13
2023-12-09T17:52:03.179Z,97048.72
2023-12-09T17:54:29.663Z,97037.34
2023-12-09T17:56:56.219Z,97025.19
2023-12-09T17:59:22.719Z,97020.59
2023-12-09T18:01:49.164Z,96997.97
2023-12-09T18:04:15.761Z,96989.09
2023-12-09T18:06:42.327Z,96979.94
2023-12-09T18:09:09.028Z,96982.63
2023-12-09T18:11:35.617Z,96982.63
2023-12-09T18:14:03.897Z,96991.78
2023-12-09T18:16:31.015Z,96999.88
2023-12-09T18:18:57.565Z,97014.13
2023-12-09T18:21:26.944Z,97024.88
2023-12-09T18:23:54.493Z,97005.25
2023-12-09T18:26:21.213Z,96997.97
2023-12-09T18:28:47.780Z,96985.63
2023-12-09T18:31:14.383Z,96967.09
2023-12-09T18:33:41.056Z,96961.19
2023-12-09T18:36:09.355Z,96946.47
2023-12-09T18:38:35.899Z,96952.94
2023-12-09T18:41:02.618Z,96959.44
2023-12-09T18:43:29.071Z,96963.19
2023-12-09T18:45:55.567Z,96964.31
2023-12-09T18:48:23.646Z,96954.16
2023-12-09T18:50:50.574Z,96948.28
2023-12-09T18:53:17.040Z,96954.47
2023-12-09T18:55:43.589Z,96952.56
2023-12-09T18:58:10.601Z,96952.56
2023-12-09T19:00:37.218Z,96951.78
2023-12-09T19:03:04.443Z,96941.81
2023-12-09T19:05:31.366Z,96947.78
2023-12-09T19:07:57.828Z,96947.78
2023-12-09T19:10:24.517Z,96956.97
2023-12-09T19:12:52.096Z,96967.72
2023-12-09T19:15:20.150Z,96972.31
2023-12-09T19:17:47.060Z,96973.91
2023-12-09T19:20:14.395Z,96980.06
2023-12-09T19:22:40.852Z,96972.78
2023-12-09T19:25:07.769Z,96976.28
2023-12-09T19:27:34.477Z,96960.97
2023-12-09T19:30:01.120Z,96969.50
2023-12-09T19:32:28.077Z,96980.75
2023-12-09T19:34:54.990Z,96975.06
2023-12-09T19:37:21.830Z,96970.47
2023-12-09T19:39:48.692Z,96981.25
2023-12-09T19:42:15.300Z,96975.06
2023-12-09T19:44:42.004Z,96968.88
2023-12-09T19:47:09.423Z,96979.34
2023-12-09T19:49:37.273Z,96978.88
2023-12-09T19:52:04.051Z,96983.13
2023-12-09T19:54:30.659Z,96979.88
2023-12-09T19:56:57.106Z,96989.41
2023-12-09T19:59:23.857Z,96983.47
2023-12-09T20:01:50.505Z,96969.00
2023-12-09T20:04:17.390Z,96981.25
2023-12-09T20:06:44.926Z,96971.44
2023-12-09T20:09:12.276Z,96978.28
2023-12-09T20:11:39.083Z,96972.31
2023-12-09T20:14:05.543Z,96976.91
2023-12-09T20:16:32.082Z,96988.94
2023-12-09T20:18:58.769Z,96990.22
2023-12-09T20:21:25.341Z,96974.84
2023-12-09T20:23:51.944Z,96977.06
2023-12-09T20:26:18.490Z,96987.25
2023-12-09T20:28:45.037Z,96981.88
2023-12-09T20:31:14.464Z,96983.44
2023-12-09T20:33:41.379Z,96980.44
2023-12-09T20:36:08.560Z,96991.38
2023-12-09T20:38:35.065Z,97000.75
2023-12-09T20:41:01.615Z,97006.31
2023-12-09T20:43:29.287Z,97021.25
2023-12-09T20:45:55.954Z,97018.44
2023-12-09T20:48:22.604Z,97017.81
2023-12-09T20:50:49.326Z,97017.81
2023-12-09T20:53:15.880Z,97014.06
2023-12-09T20:55:42.483Z,97033.38
2023-12-09T20:58:09.049Z,97037.03
2023-12-09T21:00:35.652Z,97046.44
2023-12-09T21:03:04.226Z,97053.56
2023-12-09T21:05:30.910Z,97057.88
2023-12-09T21:07:57.466Z,97052.78
2023-12-09T21:10:24.356Z,97045.00
2023-12-09T21:12:56.108Z,97043.09
2023-12-09T21:15:22.658Z,97053.28
2023-12-09T21:17:49.118Z,97045.19
2023-12-09T21:20:15.731Z,97049.47
2023-12-09T21:22:42.523Z,97055.03
2023-12-09T21:25:10.955Z,97060.44
2023-12-09T21:27:38.305Z,97072.31
2023-12-09T21:30:07.016Z,97082.00
2023-12-09T21:32:35.091Z,97080.09
2023-12-09T21:35:01.654Z,97086.28
2023-12-09T21:37:28.095Z,97092.78
2023-12-09T21:39:54.926Z,97107.84
2023-12-09T21:42:21.510Z,97119.63
2023-12-09T21:44:49.028Z,97128.69
2023-12-09T21:47:16.208Z,97140.94
2023-12-09T21:49:42.984Z,97144.50
2023-12-09T21:52:09.612Z,97149.75
2023-12-09T21:54:36.428Z,97166.91
2023-12-09T21:57:03.098Z,97179.47
2023-12-09T21:59:29.651Z,97182.97
2023-12-09T22:02:00.609Z,97185.84
2023-12-09T22:04:28.696Z,97193.00
2023-12-09T22:06:55.593Z,97189.22
2023-12-09T22:09:22.248Z,97186.50
2023-12-09T22:11:49.027Z,97180.84
2023-12-09T22:14:15.634Z,97199.09
2023-12-09T22:16:44.734Z,97195.75
2023-12-09T22:19:11.710Z,97199.28
2023-12-09T22:21:43.429Z,97206.25
2023-12-09T22:24:11.206Z,97214.34
2023-12-09T22:26:45.125Z,97216.91
2023-12-09T22:29:12.190Z,97211.50
2023-12-09T22:31:42.839Z,97213.28
2023-12-09T22:34:11.452Z,97212.19
2023-12-09T22:36:38.203Z,97217.78
2023-12-09T22:39:05.551Z,97243.97
2023-12-09T22:41:32.075Z,97247.63
2023-12-09T22:43:58.735Z,97256.22
2023-12-09T22:46:31.352Z,97272.00
2023-12-09T22:48:59.366Z,97287.97
2023-12-09T22:51:26.606Z,97297.34
2023-12-09T22:53:53.589Z,97308.41
2023-12-09T22:56:25.021Z,97317.53
2023-12-09T22:58:53.666Z,97314.72
2023-12-09T23:01:28.403Z,97307.53
2023-12-09T23:03:55.617Z,97326.13
2023-12-09T23:06:22.299Z,97361.47
2023-12-09T23:08:49.191Z,97336.38
2023-12-09T23:11:16.258Z,97346.59
2023-12-09T23:13:42.857Z,97359.78
2023-12-09T23:16:10.847Z,97390.44
2023-12-09T23:18:41.928Z,97365.00
2023-12-09T23:21:08.752Z,97363.06
2023-12-09T23:23:35.381Z,97382.63
2023-12-09T23:26:02.404Z,97391.38
2023-12-09T23:28:29.006Z,97405.09
2023-12-09T23:30:55.884Z,97396.66
2023-12-09T23:33:22.732Z,97414.31
2023-12-09T23:35:50.329Z,97434.16
2023-12-09T23:38:16.941Z,97436.38
2023-12-09T23:40:43.724Z,97446.88
2023-12-09T23:43:10.421Z,97455.78
2023-12-09T23:45:38.400Z,97457.72
2023-12-09T23:48:05.885Z,97469.84
2023-12-09T23:50:33.016Z,97469.91
2023-12-09T23:52:59.779Z,97494.91
2023-12-09T23:55:26.739Z,97513.56
2023-12-09T23:57:53.361Z,97504.19
